createdAt,value
2023-01-18T00:01:58.711Z,23.30
2023-01-18T00:04:32.533Z,23.50
2023-01-18T00:07:06.889Z,25.20
2023-01-18T00:09:40.988Z,23.90
2023-01-18T00:12:14.453Z,24.60
2023-01-18T00:14:48.043Z,25.20
2023-01-18T00:17:22.028Z,26.70
2023-01-18T00:19:55.673Z,26.50
2023-01-18T00:22:29.956Z,26.20
2023-01-18T00:25:04.481Z,24.70
2023-01-18T00:27:38.127Z,23.60
2023-01-18T00:30:14.367Z,24.10
2023-01-18T00:32:48.012Z,23.80
2023-01-18T00:35:22.513Z,24.30
2023-01-18T00:37:56.827Z,25.30
2023-01-18T00:40:30.689Z,25.20
2023-01-18T00:43:21.819Z,25.30
2023-01-18T00:45:55.281Z,24.90
2023-01-18T00:48:28.978Z,24.30
2023-01-18T00:51:02.854Z,24.50
2023-01-18T00:53:38.345Z,20.80
2023-01-18T00:56:14.506Z,20.90
2023-01-18T00:58:48.825Z,23.70
2023-01-18T01:01:23.060Z,23.60
2023-01-18T01:04:14.008Z,22.70
2023-01-18T01:06:48.412Z,22.80
2023-01-18T01:09:25.635Z,24.60
2023-01-18T01:12:18.809Z,21.80
2023-01-18T01:15:10.025Z,21.40
2023-01-18T01:18:01.617Z,20.10
2023-01-18T01:20:52.805Z,20.60
2023-01-18T01:23:44.945Z,20.60
2023-01-18T01:26:18.930Z,22.30
2023-01-18T01:28:55.648Z,21.30
2023-01-18T01:31:29.579Z,21.60
2023-01-18T01:34:03.382Z,21.30
2023-01-18T01:36:37.401Z,20.40
2023-01-18T01:39:11.491Z,19.20
2023-01-18T01:41:45.298Z,18.50
2023-01-18T01:44:52.840Z,19.90
2023-01-18T01:47:39.587Z,20.90
2023-01-18T01:50:20.159Z,19.00
2023-01-18T01:52:54.430Z,19.60
2023-01-18T01:55:32.195Z,18.80
2023-01-18T01:58:07.691Z,17.60
2023-01-18T02:00:41.331Z,18.30
2023-01-18T02:03:19.615Z,17.50
2023-01-18T02:05:57.394Z,18.40
2023-01-18T02:08:31.953Z,19.80
2023-01-18T02:11:05.828Z,19.30
2023-01-18T02:13:39.402Z,18.00
2023-01-18T02:16:22.545Z,18.90
2023-01-18T02:19:07.891Z,17.50
2023-01-18T02:21:45.781Z,17.80
2023-01-18T02:25:04.433Z,17.90
2023-01-18T02:27:45.016Z,18.80
2023-01-18T02:30:32.720Z,19.00
2023-01-18T02:33:10.765Z,18.60
2023-01-18T02:35:52.214Z,17.90
2023-01-18T02:38:29.008Z,16.20
2023-01-18T02:41:11.091Z,15.90
2023-01-18T02:44:14.781Z,18.60
2023-01-18T02:46:49.092Z,17.50
2023-01-18T02:49:32.633Z,18.30
2023-01-18T02:52:09.012Z,18.50
2023-01-18T02:54:43.873Z,15.80
2023-01-18T02:57:19.885Z,16.60
2023-01-18T02:59:56.582Z,17.50
2023-01-18T03:02:30.490Z,16.20
2023-01-18T03:05:04.917Z,17.50
2023-01-18T03:07:47.791Z,17.60
2023-01-18T03:10:22.174Z,15.80
2023-01-18T03:13:01.469Z,17.70
2023-01-18T03:15:48.236Z,15.80
2023-01-18T03:18:31.565Z,16.80
2023-01-18T03:21:08.719Z,15.60
2023-01-18T03:23:46.086Z,17.00
2023-01-18T03:26:23.623Z,15.40
2023-01-18T03:29:17.557Z,16.80
2023-01-18T03:32:11.534Z,14.70
2023-01-18T03:34:51.784Z,14.40
2023-01-18T03:37:32.269Z,15.70
2023-01-18T03:40:10.216Z,16.20
2023-01-18T03:42:52.496Z,16.90
2023-01-18T03:45:32.349Z,14.80
2023-01-18T03:48:09.542Z,13.40
2023-01-18T03:50:51.543Z,14.60
2023-01-18T03:53:33.146Z,13.60
2023-01-18T03:56:12.494Z,12.90
2023-01-18T03:58:47.546Z,13.00
2023-01-18T04:01:21.893Z,13.10
2023-01-18T04:03:55.875Z,13.00
2023-01-18T04:06:33.100Z,12.40
2023-01-18T04:09:08.294Z,12.60
2023-01-18T04:11:42.233Z,13.30
2023-01-18T04:14:16.109Z,12.10
2023-01-18T04:16:50.647Z,12.80
2023-01-18T04:19:24.056Z,13.40
2023-01-18T04:21:57.943Z,13.70
2023-01-18T04:24:31.500Z,14.60
2023-01-18T04:27:05.471Z,13.40
2023-01-18T04:29:39.375Z,13.30
2023-01-18T04:32:13.173Z,11.60
2023-01-18T04:34:46.689Z,12.20
2023-01-18T04:37:34.458Z,13.40
2023-01-18T04:40:09.326Z,13.30
2023-01-18T04:42:46.895Z,14.10
2023-01-18T04:45:21.475Z,13.70
2023-01-18T04:47:57.638Z,12.80
2023-01-18T04:50:31.391Z,14.30
2023-01-18T04:53:05.255Z,13.20
2023-01-18T04:55:38.783Z,12.60
2023-01-18T04:58:15.578Z,13.00
2023-01-18T05:00:49.176Z,13.90
2023-01-18T05:03:23.118Z,13.60
2023-01-18T05:05:57.746Z,12.40
2023-01-18T05:08:31.248Z,12.30
2023-01-18T05:11:09.924Z,12.30
2023-01-18T05:16:20.530Z,12.80
2023-01-18T05:18:54.888Z,12.40
2023-01-18T05:21:28.967Z,11.60
2023-01-18T05:24:02.743Z,11.70
2023-01-18T05:26:36.736Z,13.30
2023-01-18T05:29:10.888Z,13.40
2023-01-18T05:31:44.967Z,13.00
2023-01-18T05:34:18.478Z,12.30
2023-01-18T05:36:52.385Z,11.50
2023-01-18T05:39:25.916Z,11.50
2023-01-18T05:42:00.246Z,12.30
2023-01-18T05:44:34.230Z,10.70
2023-01-18T05:47:08.192Z,11.40
2023-01-18T05:49:42.063Z,10.90
2023-01-18T05:52:15.848Z,11.50
2023-01-18T05:54:57.453Z,11.30
2023-01-18T05:57:31.544Z,10.70
2023-01-18T06:00:06.872Z,11.00
2023-01-18T06:02:45.482Z,9.20
2023-01-18T06:05:19.909Z,9.40
2023-01-18T06:07:53.983Z,10.20
2023-01-18T06:10:28.217Z,9.70
2023-01-18T06:13:01.999Z,11.30
2023-01-18T06:15:35.836Z,10.90
2023-01-18T06:18:09.814Z,9.10
2023-01-18T06:20:44.053Z,9.90
2023-01-18T06:23:18.014Z,9.80
2023-01-18T06:25:51.689Z,9.20
2023-01-18T06:28:27.562Z,9.00
2023-01-18T06:31:05.375Z,8.80
2023-01-18T06:33:39.530Z,9.00
2023-01-18T06:36:13.575Z,9.90
2023-01-18T06:38:47.595Z,8.40
2023-01-18T06:41:21.093Z,8.50
2023-01-18T06:43:55.125Z,8.60
2023-01-18T06:46:29.499Z,8.80
2023-01-18T06:49:03.431Z,7.80
2023-01-18T06:51:37.283Z,9.80
2023-01-18T06:54:11.251Z,9.60
2023-01-18T06:56:45.362Z,9.30
2023-01-18T06:59:19.649Z,8.30
2023-01-18T07:01:54.887Z,8.10
2023-01-18T07:04:29.240Z,12.80
2023-01-18T07:07:03.166Z,10.50
2023-01-18T07:09:36.982Z,9.20
2023-01-18T07:12:11.486Z,9.40
2023-01-18T07:14:45.126Z,8.80
2023-01-18T07:17:18.730Z,9.40
2023-01-18T07:19:52.680Z,7.90
2023-01-18T07:22:26.754Z,8.30
2023-01-18T07:25:00.791Z,9.10
2023-01-18T07:27:35.062Z,7.70
2023-01-18T07:30:14.468Z,9.80
2023-01-18T07:32:52.130Z,10.40
2023-01-18T07:35:29.382Z,8.40
2023-01-18T07:38:05.913Z,7.20
2023-01-18T07:40:39.829Z,7.50
2023-01-18T07:43:13.330Z,8.10
2023-01-18T07:45:54.729Z,7.00
2023-01-18T07:48:29.163Z,7.40
2023-01-18T07:51:05.528Z,6.90
2023-01-18T07:53:40.428Z,6.90
2023-01-18T07:56:16.620Z,9.00
2023-01-18T07:58:50.704Z,7.20
2023-01-18T08:01:25.958Z,7.00
2023-01-18T08:03:59.849Z,6.10
2023-01-18T08:06:33.563Z,7.70
2023-01-18T08:09:17.082Z,6.30
2023-01-18T08:11:50.965Z,6.80
2023-01-18T08:14:25.326Z,5.60
2023-01-18T08:16:58.954Z,6.50
2023-01-18T08:19:32.981Z,5.70
2023-01-18T08:22:07.512Z,5.30
2023-01-18T08:24:41.269Z,6.00
2023-01-18T08:27:16.986Z,4.80
2023-01-18T08:29:50.951Z,5.70
2023-01-18T08:32:24.590Z,5.70
2023-01-18T08:34:57.978Z,4.80
2023-01-18T08:37:31.622Z,4.90
2023-01-18T08:40:05.104Z,5.50
2023-01-18T08:42:39.209Z,5.70
2023-01-18T08:45:14.285Z,5.40
2023-01-18T08:47:57.145Z,4.80
2023-01-18T08:50:32.417Z,5.50
2023-01-18T08:53:06.214Z,4.60
2023-01-18T08:55:40.872Z,5.10
2023-01-18T08:58:14.793Z,5.10
2023-01-18T09:00:50.972Z,8.00
2023-01-18T09:03:25.538Z,5.40
2023-01-18T09:06:01.184Z,15.40
2023-01-18T09:08:35.388Z,5.50
2023-01-18T09:11:12.276Z,5.20
2023-01-18T09:13:59.777Z,5.20
2023-01-18T09:16:35.144Z,5.70
2023-01-18T09:19:08.518Z,4.70
2023-01-18T09:21:42.085Z,5.20
2023-01-18T09:24:15.739Z,4.50
2023-01-18T09:26:51.656Z,4.40
2023-01-18T09:29:24.976Z,4.10
2023-01-18T09:31:58.615Z,4.40
2023-01-18T09:34:32.420Z,4.90
2023-01-18T09:37:07.072Z,4.80
2023-01-18T09:39:51.438Z,4.30
2023-01-18T09:42:32.415Z,4.30
2023-01-18T09:45:08.004Z,3.70
2023-01-18T09:47:49.068Z,4.00
2023-01-18T09:50:25.161Z,4.20
2023-01-18T09:53:08.528Z,5.30
2023-01-18T09:55:52.124Z,4.50
2023-01-18T09:58:41.995Z,3.50
2023-01-18T10:01:20.316Z,3.10
2023-01-18T10:03:58.400Z,3.10
2023-01-18T10:06:37.260Z,4.00
2023-01-18T10:09:18.483Z,3.40
2023-01-18T10:11:59.994Z,3.30
2023-01-18T10:14:46.783Z,3.70
2023-01-18T10:17:24.228Z,3.10
2023-01-18T10:20:01.979Z,3.10
2023-01-18T10:22:48.207Z,3.00
2023-01-18T10:25:33.507Z,3.10
2023-01-18T10:28:34.477Z,2.70
2023-01-18T10:31:34.330Z,3.40
2023-01-18T10:34:19.236Z,2.90
2023-01-18T10:36:55.849Z,2.70
2023-01-18T10:39:36.645Z,3.60
2023-01-18T10:42:23.891Z,3.70
2023-01-18T10:44:57.621Z,2.80
2023-01-18T10:47:31.230Z,3.50
2023-01-18T10:50:18.294Z,3.30
2023-01-18T10:52:52.146Z,3.30
2023-01-18T10:55:37.676Z,2.70
2023-01-18T10:58:15.828Z,3.00
2023-01-18T11:00:58.707Z,2.70
2023-01-18T11:03:38.763Z,3.00
2023-01-18T11:06:12.679Z,2.80
2023-01-18T11:08:46.985Z,2.90
2023-01-18T11:11:50.933Z,3.70
2023-01-18T11:14:30.843Z,3.60
2023-01-18T11:17:11.917Z,3.10
2023-01-18T11:19:48.066Z,2.90
2023-01-18T11:22:21.718Z,3.40
2023-01-18T11:24:56.572Z,3.60
2023-01-18T11:27:31.996Z,3.10
2023-01-18T11:30:06.758Z,3.70
2023-01-18T11:32:43.407Z,3.30
2023-01-18T11:35:35.027Z,3.90
2023-01-18T11:38:09.315Z,4.10
2023-01-18T11:40:44.051Z,4.20
2023-01-18T11:43:22.919Z,4.00
2023-01-18T11:46:00.675Z,3.70
2023-01-18T11:48:40.755Z,3.80
2023-01-18T11:51:22.898Z,3.80
2023-01-18T11:54:22.952Z,3.90
2023-01-18T11:57:00.066Z,4.30
2023-01-18T11:59:36.418Z,10.40
2023-01-18T12:02:40.492Z,8.90
2023-01-18T12:05:33.852Z,4.50
2023-01-18T12:08:49.242Z,4.30
2023-01-18T12:11:52.056Z,3.90
2023-01-18T12:14:42.348Z,3.70
2023-01-18T12:17:36.879Z,3.80
2023-01-18T12:20:28.291Z,4.10
2023-01-18T12:23:29.477Z,4.60
2023-01-18T12:26:22.348Z,5.30
2023-01-18T12:29:20.175Z,5.60
2023-01-18T12:32:09.541Z,4.10
2023-01-18T12:34:53.032Z,5.10
2023-01-18T12:37:37.132Z,5.10
2023-01-18T12:40:33.125Z,5.40
2023-01-18T12:43:17.818Z,5.00
2023-01-18T12:45:58.765Z,4.80
2023-01-18T12:48:36.523Z,5.90
2023-01-18T12:51:16.500Z,4.90
2023-01-18T12:53:53.862Z,4.40
2023-01-18T12:56:32.571Z,4.60
2023-01-18T12:59:09.749Z,4.50
2023-01-18T13:01:46.063Z,4.10
2023-01-18T13:04:27.383Z,4.60
2023-01-18T13:07:07.586Z,4.90
2023-01-18T13:09:46.491Z,4.90
2023-01-18T13:12:20.563Z,5.30
2023-01-18T13:15:02.104Z,4.20
2023-01-18T13:17:42.041Z,4.50
2023-01-18T13:20:21.536Z,3.80
2023-01-18T13:23:06.518Z,4.00
2023-01-18T13:25:49.510Z,3.90
2023-01-18T13:28:25.668Z,4.00
2023-01-18T13:31:05.287Z,4.80
2023-01-18T13:33:41.859Z,4.70
2023-01-18T13:36:17.673Z,5.30
2023-01-18T13:38:57.486Z,4.70
2023-01-18T13:41:32.637Z,5.30
2023-01-18T13:44:27.688Z,4.80
2023-01-18T13:47:49.082Z,5.10
2023-01-18T13:50:49.367Z,4.40
2023-01-18T13:53:31.748Z,4.50
2023-01-18T13:56:27.857Z,5.20
2023-01-18T13:59:18.855Z,5.40
2023-01-18T14:01:53.597Z,5.10
2023-01-18T14:04:33.728Z,5.00
2023-01-18T14:07:09.587Z,4.70
2023-01-18T14:09:46.866Z,4.40
2023-01-18T14:12:51.088Z,4.90
2023-01-18T14:15:42.038Z,5.30
2023-01-18T14:18:25.958Z,5.00
2023-01-18T14:21:20.573Z,5.80
2023-01-18T14:24:21.981Z,5.20
2023-01-18T14:26:57.939Z,6.00
2023-01-18T14:29:41.133Z,6.60
2023-01-18T14:32:21.968Z,7.00
2023-01-18T14:35:02.385Z,6.80
2023-01-18T14:37:37.137Z,5.90
2023-01-18T14:40:24.677Z,4.60
2023-01-18T14:43:02.463Z,4.50
2023-01-18T14:45:39.155Z,4.10
2023-01-18T14:48:22.366Z,3.90
2023-01-18T14:51:00.875Z,4.20
2023-01-18T14:53:37.451Z,4.60
2023-01-18T14:56:18.501Z,4.70
2023-01-18T14:58:57.934Z,4.90
2023-01-18T15:01:34.016Z,5.50
2023-01-18T15:04:18.764Z,6.00
2023-01-18T15:06:55.871Z,4.90
2023-01-18T15:09:32.178Z,4.90
2023-01-18T15:12:10.210Z,4.90
2023-01-18T15:14:47.075Z,5.40
2023-01-18T15:17:24.163Z,5.00
2023-01-18T15:20:00.918Z,5.50
2023-01-18T15:22:36.642Z,5.20
2023-01-18T15:25:20.301Z,5.70
2023-01-18T15:27:55.617Z,6.50
2023-01-18T15:30:33.136Z,6.40
2023-01-18T15:33:07.951Z,6.20
2023-01-18T15:35:41.617Z,6.20
2023-01-18T15:38:16.009Z,6.40
2023-01-18T15:40:59.811Z,5.90
2023-01-18T15:43:38.945Z,6.20
2023-01-18T15:46:14.680Z,5.70
2023-01-18T15:48:55.092Z,6.20
2023-01-18T15:51:43.298Z,6.80
2023-01-18T15:54:28.607Z,6.80
2023-01-18T15:57:15.076Z,6.60
2023-01-18T15:59:49.805Z,7.00
2023-01-18T16:02:25.712Z,7.00
2023-01-18T16:05:21.767Z,7.10
2023-01-18T16:08:18.742Z,7.80
2023-01-18T16:10:58.043Z,8.10
2023-01-18T16:13:40.108Z,9.10
2023-01-18T16:16:23.689Z,9.10
2023-01-18T16:19:06.711Z,9.90
2023-01-18T16:21:46.758Z,9.00
2023-01-18T16:24:34.491Z,9.70
2023-01-18T16:27:15.887Z,10.80
2023-01-18T16:29:51.923Z,13.30
2023-01-18T16:32:36.136Z,13.20
2023-01-18T16:35:18.005Z,12.80
2023-01-18T16:37:52.879Z,14.10
2023-01-18T16:40:30.961Z,13.30
2023-01-18T16:43:06.947Z,13.00
2023-01-18T16:45:49.467Z,12.80
2023-01-18T16:48:26.318Z,13.10
2023-01-18T16:51:02.248Z,14.10
2023-01-18T16:53:37.153Z,13.30
2023-01-18T16:56:15.910Z,13.40
2023-01-18T17:01:22.872Z,13.40
2023-01-18T17:03:57.025Z,15.40
2023-01-18T17:06:33.931Z,12.90
2023-01-18T17:09:20.907Z,13.80
2023-01-18T17:11:56.991Z,12.50
2023-01-18T17:14:31.310Z,14.60
2023-01-18T17:17:09.760Z,14.40
2023-01-18T17:19:43.792Z,15.60
2023-01-18T17:22:18.599Z,14.60
2023-01-18T17:24:54.725Z,16.00
2023-01-18T17:27:29.321Z,15.60
2023-01-18T17:30:05.800Z,15.00
2023-01-18T17:32:40.906Z,15.10
2023-01-18T17:35:18.516Z,16.10
2023-01-18T17:38:00.959Z,15.90
2023-01-18T17:40:44.265Z,17.00
2023-01-18T17:43:32.067Z,17.90
2023-01-18T17:46:09.565Z,16.30
2023-01-18T17:48:45.513Z,15.50
2023-01-18T17:51:20.302Z,15.90
2023-01-18T17:54:02.128Z,16.00
2023-01-18T17:56:40.391Z,16.40
2023-01-18T17:59:16.326Z,16.20
2023-01-18T18:01:51.822Z,16.20
2023-01-18T18:04:31.479Z,17.20
2023-01-18T18:07:08.973Z,16.20
2023-01-18T18:10:00.312Z,14.60
2023-01-18T18:12:37.935Z,15.40
2023-01-18T18:15:15.942Z,16.80
2023-01-18T18:18:00.176Z,16.30
2023-01-18T18:20:36.504Z,15.70
2023-01-18T18:23:15.052Z,16.70
2023-01-18T18:25:52.610Z,16.10
2023-01-18T18:28:30.298Z,17.40
2023-01-18T18:31:05.841Z,15.30
2023-01-18T18:33:44.051Z,18.10
2023-01-18T18:36:27.951Z,18.40
2023-01-18T18:39:08.445Z,18.60
2023-01-18T18:41:45.130Z,18.50
2023-01-18T18:44:27.584Z,17.90
2023-01-18T18:47:05.590Z,19.30
2023-01-18T18:49:49.824Z,19.30
2023-01-18T18:52:25.481Z,19.50
2023-01-18T18:55:05.619Z,19.10
2023-01-18T18:57:42.384Z,20.30
2023-01-18T19:00:19.511Z,21.90
2023-01-18T19:02:59.435Z,19.30
2023-01-18T19:05:39.115Z,21.10
2023-01-18T19:08:18.908Z,20.40
2023-01-18T19:10:54.552Z,21.60
2023-01-18T19:13:31.371Z,22.30
2023-01-18T19:16:11.957Z,22.10
2023-01-18T19:18:50.068Z,23.30
2023-01-18T19:21:43.225Z,21.10
2023-01-18T19:24:24.262Z,22.20
2023-01-18T19:27:01.492Z,22.20
2023-01-18T19:29:39.180Z,22.00
2023-01-18T19:32:16.198Z,22.90
2023-01-18T19:34:56.348Z,24.20
2023-01-18T19:37:35.710Z,23.50
2023-01-18T19:40:19.169Z,22.10
2023-01-18T19:42:56.958Z,24.10
2023-01-18T19:45:42.869Z,22.50
2023-01-18T19:48:18.543Z,21.60
2023-01-18T19:50:55.893Z,21.40
2023-01-18T19:53:33.675Z,22.30
2023-01-18T19:56:10.457Z,24.10
2023-01-18T19:58:51.403Z,22.20
2023-01-18T20:01:36.474Z,23.30
2023-01-18T20:04:17.628Z,22.60
2023-01-18T20:06:55.711Z,21.70
2023-01-18T20:12:21.625Z,21.20
2023-01-18T20:14:58.867Z,20.30
2023-01-18T20:17:34.878Z,21.30
2023-01-18T20:20:31.356Z,20.00
2023-01-18T20:23:10.218Z,19.00
2023-01-18T20:25:55.439Z,21.10
2023-01-18T20:28:32.250Z,19.20
2023-01-18T20:31:10.419Z,19.60
2023-01-18T20:33:47.371Z,17.80
2023-01-18T20:36:24.617Z,18.60
2023-01-18T20:39:00.108Z,19.70
2023-01-18T20:41:37.307Z,19.80
2023-01-18T20:44:15.574Z,19.40
2023-01-18T20:46:55.840Z,20.70
2023-01-18T20:49:39.172Z,18.10
2023-01-18T20:52:15.163Z,18.60
2023-01-18T20:54:52.464Z,18.10
2023-01-18T20:57:37.443Z,18.40
2023-01-18T21:00:14.747Z,19.80
2023-01-18T21:02:49.769Z,18.70
2023-01-18T21:05:25.705Z,18.30
2023-01-18T21:08:00.590Z,19.00
2023-01-18T21:10:39.514Z,17.30
2023-01-18T21:15:47.447Z,18.80
2023-01-18T21:18:21.558Z,18.60
2023-01-18T21:21:01.685Z,18.90
2023-01-18T21:23:39.929Z,19.20
2023-01-18T21:26:15.301Z,20.40
2023-01-18T21:28:49.715Z,18.50
2023-01-18T21:31:24.270Z,16.80
2023-01-18T21:33:58.918Z,19.00
2023-01-18T21:36:33.074Z,18.90
2023-01-18T21:39:06.917Z,18.10
2023-01-18T21:41:57.686Z,18.50
2023-01-18T21:44:49.752Z,19.20
2023-01-18T21:47:23.914Z,19.10
2023-01-18T21:50:18.266Z,19.60
2023-01-18T21:53:09.803Z,17.10
2023-01-18T21:55:43.971Z,18.30
2023-01-18T21:58:35.346Z,18.00
2023-01-18T22:01:16.077Z,18.80
2023-01-18T22:04:09.600Z,20.60
2023-01-18T22:06:44.647Z,19.60
2023-01-18T22:09:18.931Z,20.20
2023-01-18T22:11:52.870Z,19.50
2023-01-18T22:14:26.763Z,19.30
2023-01-18T22:17:00.491Z,19.90
2023-01-18T22:19:34.054Z,20.90
2023-01-18T22:22:07.709Z,20.40
2023-01-18T22:24:41.509Z,21.60
2023-01-18T22:27:15.387Z,20.30
2023-01-18T22:29:48.963Z,20.70
2023-01-18T22:32:22.962Z,19.70
2023-01-18T22:34:56.572Z,21.00
2023-01-18T22:37:33.773Z,20.70
2023-01-18T22:40:09.212Z,19.90
2023-01-18T22:42:42.825Z,22.90
2023-01-18T22:45:16.644Z,20.30
2023-01-18T22:47:50.292Z,20.10
2023-01-18T22:50:24.197Z,20.70
2023-01-18T22:52:58.393Z,19.60
2023-01-18T22:55:34.595Z,19.40
2023-01-18T22:58:08.674Z,20.30
2023-01-18T23:00:43.423Z,22.10
2023-01-18T23:03:19.887Z,20.90
2023-01-18T23:06:02.068Z,21.90
2023-01-18T23:08:42.904Z,21.00
2023-01-18T23:11:19.677Z,21.10
2023-01-18T23:14:12.937Z,21.20
2023-01-18T23:17:04.758Z,19.30
2023-01-18T23:19:39.399Z,21.40
2023-01-18T23:22:13.145Z,20.90
2023-01-18T23:24:47.499Z,22.10
2023-01-18T23:27:21.207Z,20.50
2023-01-18T23:29:57.558Z,19.30
2023-01-18T23:32:31.951Z,18.60
2023-01-18T23:35:06.241Z,20.50
2023-01-18T23:37:40.423Z,19.50
2023-01-18T23:40:33.498Z,21.40
2023-01-18T23:43:32.294Z,21.20
2023-01-18T23:46:23.817Z,20.60
2023-01-18T23:49:15.334Z,21.50
2023-01-18T23:52:06.873Z,20.50
2023-01-18T23:54:40.772Z,21.90
2023-01-18T23:57:15.679Z,23.40
2023-01-18T23:59:49.456Z,22.30
